createdAt,value
2018-01-24T00:00:27.877Z,45.93
2018-01-24T00:01:32.063Z,47.80
2018-01-24T00:02:36.251Z,42.73
2018-01-24T00:03:41.676Z,49.10
2018-01-24T00:04:46.329Z,43.80
2018-01-24T00:05:51.253Z,43.83
2018-01-24T00:06:55.477Z,47.80
2018-01-24T00:07:59.707Z,40.30
2018-01-24T00:09:03.956Z,43.20
2018-01-24T00:10:08.188Z,45.87
2018-01-24T00:11:13.386Z,46.90
2018-01-24T00:12:18.794Z,40.17
2018-01-24T00:13:23.011Z,48.60
2018-01-24T00:14:27.239Z,49.00
2018-01-24T00:15:31.433Z,44.30
2018-01-24T00:16:35.660Z,42.03
2018-01-24T00:17:41.206Z,45.50
2018-01-24T00:18:46.372Z,44.30
2018-01-24T00:19:51.609Z,49.70
2018-01-24T00:20:56.629Z,41.50
2018-01-24T00:22:00.849Z,46.00
2018-01-24T00:23:05.823Z,47.40
2018-01-24T00:24:10.205Z,45.63
2018-01-24T00:25:15.224Z,48.33
2018-01-24T00:26:19.576Z,41.30
2018-01-24T00:27:23.875Z,46.50
2018-01-24T00:28:28.069Z,48.47
2018-01-24T00:29:33.058Z,50.43
2018-01-24T00:30:37.252Z,47.97
2018-01-24T00:31:42.731Z,49.43
2018-01-24T00:32:47.677Z,46.80
2018-01-24T00:33:52.719Z,49.07
2018-01-24T00:34:56.913Z,52.63
2018-01-24T00:36:01.853Z,47.17
2018-01-24T00:37:06.122Z,46.30
2018-01-24T00:38:10.731Z,53.23
2018-01-24T00:39:15.628Z,48.80
2018-01-24T00:40:19.932Z,50.30
2018-01-24T00:41:24.222Z,46.90
2018-01-24T00:42:29.467Z,57.47
2018-01-24T00:43:34.420Z,50.10
2018-01-24T00:44:38.643Z,52.63
2018-01-24T00:45:44.929Z,51.30
2018-01-24T00:46:49.548Z,53.43
2018-01-24T00:47:54.261Z,55.07
2018-01-24T00:48:58.452Z,53.20
2018-01-24T00:50:02.660Z,51.77
2018-01-24T00:51:06.839Z,49.33
2018-01-24T00:52:12.702Z,54.20
2018-01-24T00:53:17.287Z,53.50
2018-01-24T00:54:22.374Z,52.70
2018-01-24T00:55:26.568Z,47.67
2018-01-24T00:56:30.814Z,56.57
2018-01-24T00:57:35.024Z,55.17
2018-01-24T00:58:41.362Z,48.10
2018-01-24T00:59:46.647Z,57.10
2018-01-24T01:00:51.089Z,50.80
2018-01-24T01:01:55.324Z,51.07
2018-01-24T01:02:59.528Z,50.17
2018-01-24T01:04:04.786Z,55.10
2018-01-24T01:05:10.617Z,48.43
2018-01-24T01:06:15.707Z,44.53
2018-01-24T01:07:20.148Z,52.83
2018-01-24T01:08:24.385Z,52.77
2018-01-24T01:09:28.616Z,53.40
2018-01-24T01:10:32.820Z,56.07
2018-01-24T01:11:37.002Z,47.73
2018-01-24T01:12:42.325Z,54.07
2018-01-24T01:13:46.689Z,49.47
2018-01-24T01:14:51.872Z,55.67
2018-01-24T01:15:56.097Z,55.97
2018-01-24T01:17:00.304Z,55.50
2018-01-24T01:18:04.520Z,55.87
2018-01-24T01:19:08.980Z,55.67
2018-01-24T01:20:14.308Z,51.23
2018-01-24T01:21:18.906Z,57.27
2018-01-24T01:22:23.172Z,56.40
2018-01-24T01:23:28.157Z,53.57
2018-01-24T01:24:32.372Z,59.13
2018-01-24T01:25:36.604Z,58.80
2018-01-24T01:26:41.325Z,54.50
2018-01-24T01:27:46.435Z,56.67
2018-01-24T01:28:51.305Z,58.40
2018-01-24T01:29:55.650Z,62.80
2018-01-24T01:31:00.154Z,62.47
2018-01-24T01:32:04.373Z,62.53
2018-01-24T01:33:08.576Z,56.03
2018-01-24T01:34:14.445Z,57.67
2018-01-24T01:35:18.846Z,55.90
2018-01-24T01:36:23.149Z,58.10
2018-01-24T01:37:29.563Z,55.10
2018-01-24T01:38:33.789Z,61.37
2018-01-24T01:39:38.110Z,58.80
2018-01-24T01:40:44.754Z,60.37
2018-01-24T01:41:50.584Z,55.50
2018-01-24T01:42:54.872Z,53.87
2018-01-24T01:43:59.089Z,56.23
2018-01-24T01:45:03.323Z,49.80
2018-01-24T01:46:07.536Z,52.83
2018-01-24T01:47:12.323Z,52.77
2018-01-24T01:48:32.443Z,56.23
2018-01-24T01:49:36.657Z,50.40
2018-01-24T01:50:41.599Z,61.77
2018-01-24T01:51:46.285Z,51.53
2018-01-24T01:52:50.829Z,51.87
2018-01-24T01:53:55.097Z,59.40
2018-01-24T01:54:59.335Z,53.70
2018-01-24T01:56:03.546Z,55.50
2018-01-24T01:57:07.788Z,48.90
2018-01-24T01:58:13.250Z,55.00
2018-01-24T01:59:17.608Z,49.07
2018-01-24T02:00:22.008Z,49.60
2018-01-24T02:01:26.244Z,51.17
2018-01-24T02:02:30.516Z,54.90
2018-01-24T02:03:34.820Z,53.97
2018-01-24T02:04:41.324Z,52.87
2018-01-24T02:05:45.927Z,50.17
2018-01-24T02:06:50.209Z,56.30
2018-01-24T02:07:55.260Z,56.33
2018-01-24T02:08:59.449Z,52.23
2018-01-24T02:10:03.658Z,52.00
2018-01-24T02:11:07.901Z,54.47
2018-01-24T02:12:13.365Z,52.47
2018-01-24T02:13:18.673Z,52.80
2018-01-24T02:14:23.017Z,57.57
2018-01-24T02:15:27.208Z,58.23
2018-01-24T02:16:31.440Z,51.40
2018-01-24T02:17:35.715Z,51.93
2018-01-24T02:18:40.952Z,60.23
2018-01-24T02:19:46.178Z,49.93
2018-01-24T02:20:50.509Z,49.13
2018-01-24T02:21:54.825Z,50.90
2018-01-24T02:22:59.048Z,54.80
2018-01-24T02:24:03.284Z,54.60
2018-01-24T02:25:07.636Z,49.47
2018-01-24T02:26:12.165Z,52.03
2018-01-24T02:27:16.646Z,54.70
2018-01-24T02:28:21.734Z,48.37
2018-01-24T02:29:25.929Z,48.80
2018-01-24T02:30:30.141Z,46.10
2018-01-24T02:31:34.404Z,54.50
2018-01-24T02:32:38.966Z,48.77
2018-01-24T02:33:44.418Z,50.57
2018-01-24T02:34:48.871Z,49.33
2018-01-24T02:35:53.492Z,44.87
2018-01-24T02:36:57.700Z,45.73
2018-01-24T02:38:01.879Z,48.70
2018-01-24T02:39:17.353Z,47.63
2018-01-24T02:40:21.821Z,43.70
2018-01-24T02:41:26.049Z,45.00
2018-01-24T02:42:31.034Z,47.80
2018-01-24T02:43:35.252Z,43.60
2018-01-24T02:44:40.085Z,42.13
2018-01-24T02:45:45.373Z,42.70
2018-01-24T02:46:50.093Z,43.60
2018-01-24T02:47:54.387Z,48.57
2018-01-24T02:48:59.421Z,43.47
2018-01-24T02:50:04.388Z,47.47
2018-01-24T02:51:09.819Z,47.37
2018-01-24T02:52:14.670Z,47.80
2018-01-24T02:53:20.193Z,42.70
2018-01-24T02:54:24.620Z,40.57
2018-01-24T02:55:28.815Z,39.13
2018-01-24T02:56:33.033Z,51.43
2018-01-24T02:57:37.251Z,42.67
2018-01-24T02:58:41.739Z,39.80
2018-01-24T02:59:46.146Z,45.43
2018-01-24T03:00:50.741Z,43.37
2018-01-24T03:01:55.739Z,40.60
2018-01-24T03:02:59.956Z,43.30
2018-01-24T03:04:04.389Z,43.13
2018-01-24T03:05:08.720Z,39.67
2018-01-24T03:06:14.654Z,40.63
2018-01-24T03:07:19.830Z,45.60
2018-01-24T03:08:24.115Z,43.13
2018-01-24T03:09:29.099Z,38.27
2018-01-24T03:10:33.384Z,41.53
2018-01-24T03:11:37.623Z,43.83
2018-01-24T03:12:42.429Z,44.80
2018-01-24T03:13:47.289Z,41.57
2018-01-24T03:14:52.650Z,44.70
2018-01-24T03:15:56.891Z,40.63
2018-01-24T03:17:01.152Z,43.93
2018-01-24T03:18:05.412Z,46.83
2018-01-24T03:19:10.536Z,45.80
2018-01-24T03:20:15.193Z,40.87
2018-01-24T03:21:19.488Z,42.27
2018-01-24T03:22:23.982Z,42.23
2018-01-24T03:23:29.040Z,43.40
2018-01-24T03:24:33.256Z,48.23
2018-01-24T03:25:37.483Z,39.93
2018-01-24T03:26:42.737Z,46.20
2018-01-24T03:27:47.295Z,44.63
2018-01-24T03:28:52.345Z,51.83
2018-01-24T03:29:56.567Z,42.00
2018-01-24T03:31:00.840Z,46.93
2018-01-24T03:32:05.838Z,45.17
2018-01-24T03:33:10.322Z,46.90
2018-01-24T03:34:15.439Z,50.97
2018-01-24T03:35:20.524Z,45.70
2018-01-24T03:36:25.524Z,43.20
2018-01-24T03:37:29.719Z,45.73
2018-01-24T03:38:34.799Z,44.03
2018-01-24T03:39:40.392Z,46.20
2018-01-24T03:40:46.593Z,47.70
2018-01-24T03:41:50.996Z,44.00
2018-01-24T03:42:55.606Z,50.30
2018-01-24T03:43:59.856Z,44.73
2018-01-24T03:45:04.113Z,46.73
2018-01-24T03:46:09.325Z,50.13
2018-01-24T03:47:14.405Z,57.70
2018-01-24T03:48:18.983Z,45.50
2018-01-24T03:49:23.244Z,48.23
2018-01-24T03:50:27.480Z,48.60
2018-01-24T03:51:32.429Z,48.37
2018-01-24T03:52:36.616Z,49.37
2018-01-24T03:53:42.400Z,46.70
2018-01-24T03:54:46.800Z,44.60
2018-01-24T03:55:51.104Z,48.37
2018-01-24T03:56:55.360Z,43.87
2018-01-24T03:57:59.579Z,42.23
2018-01-24T03:59:03.763Z,47.13
2018-01-24T04:00:09.440Z,42.40
2018-01-24T04:01:14.037Z,40.47
2018-01-24T04:02:18.433Z,41.90
2018-01-24T04:03:22.833Z,44.70
2018-01-24T04:04:28.112Z,48.30
2018-01-24T04:05:32.332Z,45.30
2018-01-24T04:06:36.546Z,45.33
2018-01-24T04:07:42.905Z,43.63
2018-01-24T04:08:47.772Z,46.03
2018-01-24T04:09:52.187Z,43.63
2018-01-24T04:10:57.184Z,42.17
2018-01-24T04:12:02.192Z,45.60
2018-01-24T04:13:06.416Z,43.37
2018-01-24T04:14:11.227Z,47.57
2018-01-24T04:15:17.134Z,41.30
2018-01-24T04:16:21.733Z,43.73
2018-01-24T04:17:26.708Z,41.90
2018-01-24T04:18:30.923Z,43.13
2018-01-24T04:19:35.173Z,41.77
2018-01-24T04:20:39.529Z,38.53
2018-01-24T04:21:44.773Z,40.20
2018-01-24T04:22:49.128Z,43.60
2018-01-24T04:23:53.471Z,44.07
2018-01-24T04:24:58.471Z,42.30
2018-01-24T04:26:03.073Z,41.07
2018-01-24T04:27:07.357Z,43.50
2018-01-24T04:28:13.983Z,44.07
2018-01-24T04:29:19.038Z,43.77
2018-01-24T04:30:24.373Z,45.80
2018-01-24T04:31:29.498Z,43.70
2018-01-24T04:32:34.485Z,45.83
2018-01-24T04:33:38.767Z,38.63
2018-01-24T04:34:43.584Z,42.50
2018-01-24T04:35:47.939Z,43.73
2018-01-24T04:36:52.336Z,42.77
2018-01-24T04:37:56.639Z,45.83
2018-01-24T04:39:00.826Z,44.80
2018-01-24T04:40:05.821Z,46.47
2018-01-24T04:41:10.846Z,45.40
2018-01-24T04:42:15.578Z,42.53
2018-01-24T04:43:20.743Z,43.30
2018-01-24T04:44:24.940Z,41.67
2018-01-24T04:45:29.485Z,46.20
2018-01-24T04:46:33.673Z,46.80
2018-01-24T04:47:38.707Z,49.30
2018-01-24T04:48:45.326Z,43.10
2018-01-24T04:49:50.438Z,48.23
2018-01-24T04:50:55.248Z,46.70
2018-01-24T04:51:59.455Z,43.50
2018-01-24T04:53:04.441Z,44.33
2018-01-24T04:54:09.040Z,47.93
2018-01-24T04:55:14.121Z,51.27
2018-01-24T04:56:19.666Z,47.70
2018-01-24T04:57:24.363Z,47.93
2018-01-24T04:58:28.712Z,51.20
2018-01-24T04:59:32.963Z,49.37
2018-01-24T05:00:37.261Z,46.10
2018-01-24T05:01:42.452Z,47.60
2018-01-24T05:02:47.079Z,48.97
2018-01-24T05:03:51.435Z,53.20
2018-01-24T05:04:55.646Z,48.87
2018-01-24T05:05:59.865Z,56.00
2018-01-24T05:07:04.161Z,48.10
2018-01-24T05:08:08.383Z,54.53
2018-01-24T05:09:13.971Z,48.40
2018-01-24T05:10:19.436Z,44.60
2018-01-24T05:11:23.804Z,48.27
2018-01-24T05:12:28.050Z,43.87
2018-01-24T05:13:33.032Z,47.87
2018-01-24T05:14:37.291Z,47.27
2018-01-24T05:15:44.077Z,51.07
2018-01-24T05:16:50.107Z,50.63
2018-01-24T05:17:55.220Z,48.30
2018-01-24T05:18:59.467Z,48.97
2018-01-24T05:20:04.510Z,47.10
2018-01-24T05:21:11.248Z,45.20
2018-01-24T05:22:16.309Z,47.70
2018-01-24T05:23:20.703Z,43.37
2018-01-24T05:24:25.062Z,42.37
2018-01-24T05:25:29.271Z,41.17
2018-01-24T05:26:33.502Z,38.50
2018-01-24T05:27:37.701Z,36.80
2018-01-24T05:28:42.309Z,41.47
2018-01-24T05:29:46.805Z,38.87
2018-01-24T05:30:52.122Z,34.97
2018-01-24T05:31:57.124Z,39.70
2018-01-24T05:33:01.318Z,38.53
2018-01-24T05:34:05.546Z,36.00
2018-01-24T05:35:10.768Z,39.07
2018-01-24T05:36:15.295Z,39.70
2018-01-24T05:37:20.346Z,40.33
2018-01-24T05:38:25.344Z,39.20
2018-01-24T05:39:29.584Z,37.13
2018-01-24T05:40:34.535Z,37.70
2018-01-24T05:41:38.864Z,38.43
2018-01-24T05:42:43.681Z,38.20
2018-01-24T05:43:47.996Z,34.30
2018-01-24T05:44:52.521Z,35.90
2018-01-24T05:45:56.707Z,39.23
2018-01-24T05:47:01.706Z,33.90
2018-01-24T05:48:07.437Z,36.57
2018-01-24T05:49:13.605Z,36.17
2018-01-24T05:50:18.802Z,36.60
2018-01-24T05:51:23.032Z,35.00
2018-01-24T05:52:27.284Z,39.13
2018-01-24T05:53:31.544Z,38.47
2018-01-24T05:54:35.746Z,39.63
2018-01-24T05:55:40.105Z,34.30
2018-01-24T05:56:45.292Z,37.07
2018-01-24T05:57:49.654Z,33.20
2018-01-24T05:58:55.064Z,29.03
2018-01-24T05:59:59.328Z,33.57
2018-01-24T06:01:04.302Z,31.53
2018-01-24T06:02:08.536Z,36.40
2018-01-24T06:03:13.005Z,34.60
2018-01-24T06:04:17.359Z,35.50
2018-01-24T06:05:22.322Z,38.13
2018-01-24T06:06:27.315Z,34.57
2018-01-24T06:07:31.523Z,38.17
2018-01-24T06:08:35.784Z,32.63
2018-01-24T06:09:40.556Z,39.10
2018-01-24T06:10:45.091Z,40.73
2018-01-24T06:11:50.749Z,38.17
2018-01-24T06:12:56.121Z,35.90
2018-01-24T06:14:00.380Z,40.43
2018-01-24T06:15:04.632Z,37.20
2018-01-24T06:16:09.770Z,38.00
2018-01-24T06:17:14.862Z,41.40
2018-01-24T06:18:20.662Z,44.23
2018-01-24T06:19:24.930Z,45.40
2018-01-24T06:20:29.111Z,40.30
2018-01-24T06:21:33.358Z,43.57
2018-01-24T06:22:37.549Z,41.93
2018-01-24T06:23:42.193Z,38.47
2018-01-24T06:24:48.188Z,43.00
2018-01-24T06:25:53.302Z,39.13
2018-01-24T06:26:57.487Z,48.17
2018-01-24T06:28:02.453Z,45.07
2018-01-24T06:29:06.678Z,43.10
2018-01-24T06:30:11.995Z,35.37
2018-01-24T06:31:17.162Z,40.80
2018-01-24T06:32:22.724Z,44.23
2018-01-24T06:33:26.935Z,38.70
2018-01-24T06:34:31.170Z,40.97
2018-01-24T06:35:36.183Z,36.60
2018-01-24T06:36:40.764Z,40.73
2018-01-24T06:37:45.733Z,37.77
2018-01-24T06:38:51.216Z,35.47
2018-01-24T06:39:55.497Z,38.17
2018-01-24T06:41:00.060Z,37.20
2018-01-24T06:42:04.269Z,38.47
2018-01-24T06:43:09.060Z,38.63
2018-01-24T06:44:14.291Z,38.10
2018-01-24T06:45:18.549Z,45.00
2018-01-24T06:46:23.648Z,41.57
2018-01-24T06:47:28.421Z,35.80
2018-01-24T06:48:32.674Z,43.70
2018-01-24T06:49:37.627Z,41.13
2018-01-24T06:50:42.843Z,34.23
2018-01-24T06:51:47.198Z,42.40
2018-01-24T06:52:51.582Z,42.43
2018-01-24T06:53:55.907Z,40.70
2018-01-24T06:55:00.115Z,37.77
2018-01-24T06:56:04.314Z,36.77
2018-01-24T06:57:08.688Z,40.60
2018-01-24T06:58:14.192Z,40.30
2018-01-24T06:59:18.519Z,39.97
2018-01-24T07:00:22.966Z,39.63
2018-01-24T07:01:27.194Z,37.97
2018-01-24T07:02:32.168Z,38.40
2018-01-24T07:03:36.487Z,40.90
2018-01-24T07:04:42.722Z,34.43
2018-01-24T07:05:48.949Z,28.57
2018-01-24T07:06:53.280Z,32.10
2018-01-24T07:07:57.473Z,29.37
2018-01-24T07:09:02.517Z,24.77
2018-01-24T07:10:06.739Z,31.67
2018-01-24T07:11:11.663Z,29.60
2018-01-24T07:12:33.785Z,26.97
2018-01-24T07:13:55.951Z,29.43
2018-01-24T07:15:00.178Z,35.47
2018-01-24T07:16:04.417Z,27.60
2018-01-24T07:17:08.773Z,25.07
2018-01-24T07:18:13.605Z,27.63
2018-01-24T07:19:18.880Z,28.07
2018-01-24T07:20:23.388Z,25.97
2018-01-24T07:21:27.574Z,26.33
2018-01-24T07:22:31.760Z,29.00
2018-01-24T07:23:36.015Z,27.20
2018-01-24T07:24:40.881Z,26.50
2018-01-24T07:25:47.436Z,23.73
2018-01-24T07:26:52.278Z,23.03
2018-01-24T07:27:57.236Z,24.43
2018-01-24T07:29:01.451Z,32.03
2018-01-24T07:30:05.670Z,28.83
2018-01-24T07:31:10.408Z,26.63
2018-01-24T07:32:15.920Z,26.67
2018-01-24T07:33:20.262Z,28.80
2018-01-24T07:34:25.324Z,26.13
2018-01-24T07:35:30.295Z,28.63
2018-01-24T07:36:34.543Z,26.40
2018-01-24T07:37:39.569Z,26.87
2018-01-24T07:38:43.962Z,28.37
2018-01-24T07:39:48.171Z,24.57
2018-01-24T07:40:52.393Z,30.10
2018-01-24T07:41:57.469Z,28.93
2018-01-24T07:43:02.455Z,27.17
2018-01-24T07:44:06.659Z,27.90
2018-01-24T07:45:11.715Z,23.33
2018-01-24T07:46:15.990Z,23.93
2018-01-24T07:47:20.366Z,28.63
2018-01-24T07:48:24.610Z,24.70
2018-01-24T07:49:28.905Z,23.67
2018-01-24T07:50:33.172Z,22.90
2018-01-24T07:51:37.425Z,24.80
2018-01-24T07:52:43.013Z,23.57
2018-01-24T07:53:48.041Z,25.90
2018-01-24T07:54:52.713Z,24.20
2018-01-24T07:55:57.740Z,20.13
2018-01-24T07:57:03.499Z,18.70
2018-01-24T07:58:07.707Z,20.57
2018-01-24T07:59:13.037Z,22.43
2018-01-24T08:00:18.216Z,18.60
2018-01-24T08:01:22.708Z,18.37
2018-01-24T08:02:26.911Z,17.00
2018-01-24T08:03:31.138Z,18.90
2018-01-24T08:04:36.209Z,24.00
2018-01-24T08:05:41.385Z,16.27
2018-01-24T08:06:46.356Z,16.63
2018-01-24T08:07:51.238Z,18.43
2018-01-24T08:08:55.529Z,15.70
2018-01-24T08:10:00.553Z,15.23
2018-01-24T08:11:04.776Z,12.70
2018-01-24T08:12:11.706Z,12.20
2018-01-24T08:13:17.235Z,13.73
2018-01-24T08:14:21.896Z,13.03
2018-01-24T08:15:26.336Z,13.60
2018-01-24T08:16:30.620Z,10.37
2018-01-24T08:17:34.860Z,12.67
2018-01-24T08:18:39.389Z,11.73
2018-01-24T08:19:44.147Z,11.40
2018-01-24T08:20:49.392Z,11.30
2018-01-24T08:21:53.764Z,11.33
2018-01-24T08:22:57.949Z,11.00
2018-01-24T08:24:02.904Z,11.23
2018-01-24T08:25:07.440Z,10.23
2018-01-24T08:26:15.277Z,9.03
2018-01-24T08:27:20.617Z,9.40
2018-01-24T08:28:25.660Z,14.63
2018-01-24T08:29:30.621Z,9.83
2018-01-24T08:30:34.830Z,10.63
2018-01-24T08:31:39.645Z,9.20
2018-01-24T08:32:46.708Z,12.73
2018-01-24T08:33:51.325Z,14.70
2018-01-24T08:34:56.303Z,9.30
2018-01-24T08:36:00.628Z,8.20
2018-01-24T08:37:04.818Z,10.87
2018-01-24T08:38:09.339Z,10.10
2018-01-24T08:39:15.527Z,8.57
2018-01-24T08:40:21.359Z,7.03
2018-01-24T08:41:25.644Z,8.30
2018-01-24T08:42:29.856Z,11.77
2018-01-24T08:43:37.010Z,7.70
2018-01-24T08:44:38.285Z,8.93
2018-01-24T08:45:44.346Z,7.40
2018-01-24T08:46:50.015Z,8.53
2018-01-24T08:47:55.985Z,7.23
2018-01-24T08:49:00.263Z,9.27
2018-01-24T08:50:04.476Z,7.50
2018-01-24T08:51:08.823Z,6.90
2018-01-24T08:52:15.534Z,5.97
2018-01-24T08:53:20.130Z,6.27
2018-01-24T08:54:25.126Z,5.50
2018-01-24T08:55:29.383Z,6.53
2018-01-24T08:56:33.614Z,7.13
2018-01-24T08:57:37.857Z,4.97
2018-01-24T08:58:42.170Z,6.10
2018-01-24T08:59:46.429Z,5.77
2018-01-24T09:00:50.790Z,5.10
2018-01-24T09:01:55.048Z,4.90
2018-01-24T09:03:00.061Z,4.30
2018-01-24T09:04:05.048Z,6.37
2018-01-24T09:05:09.303Z,6.13
2018-01-24T09:06:14.631Z,3.87
2018-01-24T09:07:18.931Z,4.53
2018-01-24T09:08:23.172Z,4.30
2018-01-24T09:09:28.107Z,6.07
2018-01-24T09:10:33.094Z,7.07
2018-01-24T09:11:37.332Z,3.83
2018-01-24T09:12:42.611Z,5.47
2018-01-24T09:13:47.274Z,3.40
2018-01-24T09:14:51.481Z,5.10
2018-01-24T09:15:55.698Z,3.47
2018-01-24T09:16:59.957Z,4.43
2018-01-24T09:18:05.626Z,4.00
2018-01-24T09:19:10.256Z,3.87
2018-01-24T09:20:15.424Z,4.87
2018-01-24T09:21:19.968Z,3.73
2018-01-24T09:22:24.203Z,3.27
2018-01-24T09:23:28.702Z,4.13
2018-01-24T09:24:33.773Z,3.63
2018-01-24T09:25:37.976Z,3.70
2018-01-24T09:26:42.450Z,8.83
2018-01-24T09:27:46.659Z,3.93
2018-01-24T09:28:50.867Z,3.17
2018-01-24T09:29:55.404Z,5.30
2018-01-24T09:30:59.648Z,3.33
2018-01-24T09:32:04.774Z,3.10
2018-01-24T09:33:08.997Z,3.33
2018-01-24T09:34:14.041Z,3.70
2018-01-24T09:35:19.460Z,3.67
2018-01-24T09:36:23.640Z,2.70
2018-01-24T09:37:27.856Z,3.07
2018-01-24T09:38:32.043Z,2.70
2018-01-24T09:39:36.228Z,3.80
2018-01-24T09:40:42.203Z,6.40
2018-01-24T09:41:46.536Z,3.60
2018-01-24T09:42:50.967Z,3.17
2018-01-24T09:43:55.484Z,2.43
2018-01-24T09:44:59.747Z,2.60
2018-01-24T09:46:04.767Z,2.83
2018-01-24T09:47:09.088Z,3.37
2018-01-24T09:48:13.567Z,2.93
2018-01-24T09:49:19.864Z,6.03
2018-01-24T09:50:24.885Z,2.80
2018-01-24T09:51:29.201Z,2.40
2018-01-24T09:52:35.188Z,2.60
2018-01-24T09:53:39.623Z,3.00
2018-01-24T09:54:44.025Z,2.10
2018-01-24T09:55:48.432Z,3.00
2018-01-24T09:56:52.717Z,2.73
2018-01-24T09:57:59.262Z,2.10
2018-01-24T09:59:03.831Z,3.87
2018-01-24T10:00:08.569Z,2.23
2018-01-24T10:01:14.507Z,3.13
2018-01-24T10:02:19.520Z,2.50
2018-01-24T10:03:26.213Z,2.23
2018-01-24T10:04:30.610Z,1.70
2018-01-24T10:05:35.310Z,1.67
2018-01-24T10:06:40.140Z,2.43
2018-01-24T10:07:44.559Z,2.30
2018-01-24T10:08:52.088Z,1.50
2018-01-24T10:09:57.200Z,1.90
2018-01-24T10:11:02.172Z,1.93
2018-01-24T10:12:06.391Z,2.33
2018-01-24T10:13:11.559Z,3.33
2018-01-24T10:14:17.407Z,1.50
2018-01-24T10:15:21.718Z,3.63
2018-01-24T10:16:26.766Z,2.00
2018-01-24T10:17:31.051Z,1.50
2018-01-24T10:18:36.039Z,1.50
2018-01-24T10:19:40.633Z,2.57
2018-01-24T10:20:44.872Z,5.73
2018-01-24T10:21:49.086Z,2.20
2018-01-24T10:22:53.291Z,2.13
2018-01-24T10:23:57.523Z,2.63
2018-01-24T10:25:01.837Z,5.17
2018-01-24T10:26:06.097Z,1.40
2018-01-24T10:27:10.391Z,1.77
2018-01-24T10:28:14.626Z,3.03
2018-01-24T10:29:18.916Z,3.37
2018-01-24T10:30:23.136Z,1.63
2018-01-24T10:31:27.336Z,2.20
2018-01-24T10:32:31.871Z,1.23
2018-01-24T10:33:36.096Z,1.40
2018-01-24T10:34:41.667Z,2.27
2018-01-24T10:35:46.292Z,1.30
2018-01-24T10:36:51.288Z,3.80
2018-01-24T10:37:55.476Z,1.63
2018-01-24T10:38:59.700Z,2.10
2018-01-24T10:40:03.945Z,1.37
2018-01-24T10:41:08.305Z,1.30
2018-01-24T10:42:13.600Z,2.50
2018-01-24T10:43:18.623Z,1.53
2018-01-24T10:44:23.606Z,1.50
2018-01-24T10:45:28.389Z,4.63
2018-01-24T10:46:32.670Z,2.60
2018-01-24T10:47:36.890Z,2.10
2018-01-24T10:48:43.184Z,2.00
2018-01-24T10:49:47.543Z,2.03
2018-01-24T10:50:51.829Z,1.47
2018-01-24T10:51:56.059Z,1.00
2018-01-24T10:53:00.440Z,1.20
2018-01-24T10:54:05.413Z,1.10
2018-01-24T10:55:11.135Z,4.10
2018-01-24T10:56:15.793Z,2.20
2018-01-24T10:57:20.181Z,1.57
2018-01-24T10:58:24.434Z,2.33
2018-01-24T10:59:28.624Z,1.67
2018-01-24T11:00:32.860Z,1.20
2018-01-24T11:01:38.045Z,4.63
2018-01-24T11:02:43.342Z,1.40
2018-01-24T11:03:48.698Z,0.97
2018-01-24T11:04:52.927Z,1.40
2018-01-24T11:05:57.183Z,2.60
2018-01-24T11:07:01.368Z,1.53
2018-01-24T11:08:05.571Z,2.73
2018-01-24T11:09:10.402Z,4.50
2018-01-24T11:10:15.112Z,2.17
2018-01-24T11:11:19.816Z,2.30
2018-01-24T11:12:24.242Z,5.40
2018-01-24T11:13:28.431Z,2.40
2018-01-24T11:14:33.399Z,1.93
2018-01-24T11:15:38.227Z,1.80
2018-01-24T11:16:42.903Z,1.30
2018-01-24T11:17:48.467Z,2.40
2018-01-24T11:18:52.703Z,1.53
2018-01-24T11:19:56.911Z,1.53
2018-01-24T11:21:01.194Z,1.70
2018-01-24T11:22:05.449Z,1.37
2018-01-24T11:23:10.189Z,4.90
2018-01-24T11:24:14.495Z,1.20
2018-01-24T11:25:18.695Z,1.97
2018-01-24T11:26:22.874Z,1.30
2018-01-24T11:27:27.053Z,1.43
2018-01-24T11:28:33.019Z,1.80
2018-01-24T11:29:37.385Z,1.47
2018-01-24T11:30:42.324Z,2.23
2018-01-24T11:31:47.367Z,1.63
2018-01-24T11:32:51.585Z,1.63
2018-01-24T11:33:55.822Z,4.20
2018-01-24T11:35:00.060Z,1.93
2018-01-24T11:36:05.051Z,1.63
2018-01-24T11:37:09.227Z,2.43
2018-01-24T11:38:13.447Z,2.00
2018-01-24T11:39:17.669Z,2.07
2018-01-24T11:40:22.244Z,2.23
2018-01-24T11:41:27.261Z,2.20
2018-01-24T11:42:32.226Z,2.47
2018-01-24T11:43:36.473Z,2.27
2018-01-24T11:44:40.666Z,1.70
2018-01-24T11:45:44.871Z,2.50
2018-01-24T11:46:49.396Z,1.80
2018-01-24T11:47:54.542Z,2.70
2018-01-24T11:48:58.858Z,2.03
2018-01-24T11:50:03.060Z,1.70
2018-01-24T11:51:07.241Z,2.27
2018-01-24T11:52:11.428Z,1.20
2018-01-24T11:53:16.388Z,1.20
2018-01-24T11:54:20.916Z,1.60
2018-01-24T11:55:25.164Z,2.23
2018-01-24T11:56:29.357Z,1.60
2018-01-24T11:57:33.716Z,1.70
2018-01-24T11:58:38.697Z,2.17
2018-01-24T11:59:43.314Z,1.77
2018-01-24T12:00:47.569Z,1.27
2018-01-24T12:01:52.954Z,1.83
2018-01-24T12:02:57.324Z,1.60
2018-01-24T12:04:01.668Z,1.57
2018-01-24T12:05:05.947Z,1.53
2018-01-24T12:06:10.900Z,1.60
2018-01-24T12:07:15.088Z,1.50
2018-01-24T12:08:20.243Z,1.37
2018-01-24T12:09:24.798Z,2.73
2018-01-24T12:10:29.770Z,2.00
2018-01-24T12:11:34.742Z,1.57
2018-01-24T12:12:38.953Z,1.30
2018-01-24T12:13:43.140Z,2.50
2018-01-24T12:14:47.354Z,2.07
2018-01-24T12:15:51.720Z,1.40
2018-01-24T12:16:56.820Z,1.33
2018-01-24T12:18:01.500Z,1.20
2018-01-24T12:19:06.486Z,1.17
2018-01-24T12:20:10.693Z,1.00
2018-01-24T12:21:15.022Z,1.97
2018-01-24T12:22:21.104Z,1.00
2018-01-24T12:23:25.822Z,1.07
2018-01-24T12:24:30.863Z,1.13
2018-01-24T12:25:35.802Z,2.03
2018-01-24T12:26:40.078Z,1.57
2018-01-24T12:27:44.302Z,0.90
2018-01-24T12:28:48.677Z,1.07
2018-01-24T12:29:53.409Z,0.80
2018-01-24T12:30:57.694Z,0.93
2018-01-24T12:32:01.935Z,1.17
2018-01-24T12:33:06.256Z,0.60
2018-01-24T12:34:11.400Z,0.60
2018-01-24T12:35:16.390Z,1.30
2018-01-24T12:36:21.222Z,0.80
2018-01-24T12:37:25.582Z,0.70
2018-01-24T12:38:30.776Z,0.60
2018-01-24T12:39:34.968Z,0.70
2018-01-24T12:40:39.156Z,1.10
2018-01-24T12:41:43.366Z,0.70
2018-01-24T12:42:47.768Z,1.57
2018-01-24T12:43:52.214Z,0.73
2018-01-24T12:44:56.535Z,0.97
2018-01-24T12:46:01.146Z,0.70
2018-01-24T12:47:05.353Z,3.13
2018-01-24T12:48:09.570Z,0.80
2018-01-24T12:49:13.822Z,0.60
2018-01-24T12:50:18.102Z,1.83
2018-01-24T12:51:23.217Z,0.70
2018-01-24T12:52:27.432Z,1.70
2018-01-24T12:53:31.629Z,1.20
2018-01-24T12:54:35.877Z,1.67
2018-01-24T12:55:40.076Z,0.97
2018-01-24T12:56:44.268Z,0.93
2018-01-24T12:57:48.545Z,0.87
2018-01-24T12:58:53.576Z,0.83
2018-01-24T12:59:58.625Z,1.00
2018-01-24T13:01:02.846Z,2.13
2018-01-24T13:02:07.075Z,1.00
2018-01-24T13:03:11.595Z,0.60
2018-01-24T13:04:15.814Z,0.73
2018-01-24T13:05:21.128Z,0.70
2018-01-24T13:06:26.746Z,0.97
2018-01-24T13:07:30.994Z,2.13
2018-01-24T13:08:35.225Z,0.70
2018-01-24T13:09:39.426Z,1.47
2018-01-24T13:10:44.437Z,0.73
2018-01-24T13:11:49.151Z,6.63
2018-01-24T13:12:53.665Z,1.87
2018-01-24T13:13:58.020Z,1.17
2018-01-24T13:15:02.208Z,2.10
2018-01-24T13:16:06.478Z,1.87
2018-01-24T13:17:11.460Z,1.03
2018-01-24T13:18:15.646Z,0.60
2018-01-24T13:19:22.565Z,1.20
2018-01-24T13:20:27.373Z,0.80
2018-01-24T13:21:31.609Z,0.77
2018-01-24T13:22:35.799Z,0.90
2018-01-24T13:23:40.006Z,0.80
2018-01-24T13:24:44.251Z,0.60
2018-01-24T13:25:48.880Z,1.20
2018-01-24T13:26:53.938Z,0.80
2018-01-24T13:27:58.292Z,2.30
2018-01-24T13:29:02.479Z,0.67
2018-01-24T13:30:06.697Z,0.90
2018-01-24T13:31:10.886Z,1.17
2018-01-24T13:32:15.072Z,0.70
2018-01-24T13:33:20.080Z,0.90
2018-01-24T13:34:24.830Z,1.40
2018-01-24T13:35:29.070Z,4.20
2018-01-24T13:36:33.271Z,4.23
2018-01-24T13:37:37.519Z,1.00
2018-01-24T13:38:41.784Z,1.80
2018-01-24T13:39:46.058Z,0.60
2018-01-24T13:40:51.843Z,0.77
2018-01-24T13:41:56.371Z,0.80
2018-01-24T13:43:01.015Z,0.70
2018-01-24T13:44:05.215Z,1.23
2018-01-24T13:45:09.759Z,0.80
2018-01-24T13:46:13.946Z,0.80
2018-01-24T13:47:18.261Z,0.60
2018-01-24T13:48:23.985Z,0.70
2018-01-24T13:49:28.366Z,0.70
2018-01-24T13:50:33.388Z,0.80
2018-01-24T13:51:37.620Z,1.50
2018-01-24T13:52:42.586Z,1.20
2018-01-24T13:53:47.566Z,0.60
2018-01-24T13:54:52.524Z,0.50
2018-01-24T13:55:56.727Z,0.60
2018-01-24T13:57:01.031Z,0.97
2018-01-24T13:58:05.523Z,4.70
2018-01-24T13:59:09.764Z,0.80
2018-01-24T14:00:14.056Z,2.10
2018-01-24T14:01:19.046Z,0.80
2018-01-24T14:02:23.256Z,1.13
2018-01-24T14:03:27.827Z,0.70
2018-01-24T14:04:32.604Z,0.87